sensor_id;sensor_type;location;lat;lon;timestamp;P1;durP1;ratioP1;P2;durP2;ratioP2
74624;SDS011;63131;52.298;8.056;2022-10-22T00:00:11;8.52;;;3.92;;
74624;SDS011;63131;52.298;8.056;2022-10-22T00:02:36;9.02;;;4.28;;
74624;SDS011;63131;52.298;8.056;2022-10-22T00:05:02;9.73;;;4.50;;
74624;SDS011;63131;52.298;8.056;2022-10-22T00:07:27;9.75;;;4.07;;
74624;SDS011;63131;52.298;8.056;2022-10-22T00:09:53;9.23;;;4.40;;
74624;SDS011;63131;52.298;8.056;2022-10-22T00:12:18;10.03;;;4.37;;
74624;SDS011;63131;52.298;8.056;2022-10-22T00:14:43;11.55;;;4.72;;
74624;SDS011;63131;52.298;8.056;2022-10-22T00:17:09;10.43;;;3.87;;
74624;SDS011;63131;52.298;8.056;2022-10-22T00:19:34;9.47;;;4.30;;
74624;SDS011;63131;52.298;8.056;2022-10-22T00:21:59;9.83;;;4.93;;
74624;SDS011;63131;52.298;8.056;2022-10-22T00:24:24;10.27;;;4.40;;
74624;SDS011;63131;52.298;8.056;2022-10-22T00:26:50;10.90;;;5.65;;
74624;SDS011;63131;52.298;8.056;2022-10-22T00:29:15;13.82;;;6.13;;
74624;SDS011;63131;52.298;8.056;2022-10-22T00:31:43;18.73;;;8.18;;
74624;SDS011;63131;52.298;8.056;2022-10-22T00:34:13;13.15;;;7.03;;
74624;SDS011;63131;52.298;8.056;2022-10-22T00:36:38;12.20;;;6.37;;
74624;SDS011;63131;52.298;8.056;2022-10-22T00:39:03;15.30;;;7.53;;
74624;SDS011;63131;52.298;8.056;2022-10-22T00:41:29;15.80;;;8.07;;
74624;SDS011;63131;52.298;8.056;2022-10-22T00:43:55;18.93;;;9.80;;
74624;SDS011;63131;52.298;8.056;2022-10-22T00:46:21;18.13;;;10.02;;
74624;SDS011;63131;52.298;8.056;2022-10-22T00:48:47;14.87;;;8.07;;
74624;SDS011;63131;52.298;8.056;2022-10-22T00:51:12;17.50;;;9.37;;
74624;SDS011;63131;52.298;8.056;2022-10-22T00:53:38;16.33;;;8.77;;
74624;SDS011;63131;52.298;8.056;2022-10-22T00:56:05;17.33;;;8.02;;
74624;SDS011;63131;52.298;8.056;2022-10-22T01:00:56;13.48;;;6.53;;
74624;SDS011;63131;52.298;8.056;2022-10-22T01:03:22;14.07;;;7.63;;
74624;SDS011;63131;52.298;8.056;2022-10-22T01:06:00;17.20;;;8.20;;
74624;SDS011;63131;52.298;8.056;2022-10-22T01:10:53;12.90;;;6.47;;
74624;SDS011;63131;52.298;8.056;2022-10-22T01:31:15;11.07;;;4.80;;
74624;SDS011;63131;52.298;8.056;2022-10-22T01:33:41;10.48;;;4.63;;
74624;SDS011;63131;52.298;8.056;2022-10-22T01:36:08;11.32;;;4.80;;
74624;SDS011;63131;52.298;8.056;2022-10-22T01:38:33;9.43;;;5.32;;
74624;SDS011;63131;52.298;8.056;2022-10-22T01:40:59;10.63;;;5.15;;
74624;SDS011;63131;52.298;8.056;2022-10-22T01:43:25;10.20;;;4.45;;
74624;SDS011;63131;52.298;8.056;2022-10-22T01:45:51;10.33;;;4.40;;
74624;SDS011;63131;52.298;8.056;2022-10-22T01:51:06;9.40;;;4.35;;
74624;SDS011;63131;52.298;8.056;2022-10-22T01:56:42;9.70;;;4.57;;
74624;SDS011;63131;52.298;8.056;2022-10-22T02:04:42;8.90;;;4.25;;
74624;SDS011;63131;52.298;8.056;2022-10-22T02:07:10;9.70;;;4.10;;
74624;SDS011;63131;52.298;8.056;2022-10-22T02:09:36;10.80;;;4.85;;
74624;SDS011;63131;52.298;8.056;2022-10-22T02:12:03;10.75;;;4.18;;
74624;SDS011;63131;52.298;8.056;2022-10-22T02:14:30;10.15;;;4.72;;
74624;SDS011;63131;52.298;8.056;2022-10-22T02:16:55;10.93;;;4.68;;
74624;SDS011;63131;52.298;8.056;2022-10-22T02:19:30;10.50;;;5.20;;
74624;SDS011;63131;52.298;8.056;2022-10-22T02:22:00;10.75;;;5.15;;
74624;SDS011;63131;52.298;8.056;2022-10-22T02:24:25;10.00;;;5.30;;
74624;SDS011;63131;52.298;8.056;2022-10-22T02:27:03;11.38;;;5.43;;
74624;SDS011;63131;52.298;8.056;2022-10-22T02:29:38;11.70;;;5.18;;
74624;SDS011;63131;52.298;8.056;2022-10-22T02:32:05;10.57;;;4.07;;
74624;SDS011;63131;52.298;8.056;2022-10-22T02:34:33;10.18;;;4.03;;
74624;SDS011;63131;52.298;8.056;2022-10-22T02:36:58;9.10;;;4.00;;
74624;SDS011;63131;52.298;8.056;2022-10-22T02:39:25;8.95;;;3.97;;
74624;SDS011;63131;52.298;8.056;2022-10-22T02:41:50;9.60;;;4.25;;
74624;SDS011;63131;52.298;8.056;2022-10-22T02:44:18;9.00;;;4.03;;
74624;SDS011;63131;52.298;8.056;2022-10-22T02:46:44;9.27;;;4.15;;
74624;SDS011;63131;52.298;8.056;2022-10-22T02:49:09;9.90;;;4.57;;
74624;SDS011;63131;52.298;8.056;2022-10-22T02:51:34;9.57;;;4.00;;
74624;SDS011;63131;52.298;8.056;2022-10-22T02:53:59;10.13;;;4.20;;
74624;SDS011;63131;52.298;8.056;2022-10-22T02:56:24;9.70;;;4.07;;
74624;SDS011;63131;52.298;8.056;2022-10-22T02:58:50;11.47;;;4.07;;
74624;SDS011;63131;52.298;8.056;2022-10-22T03:01:15;10.73;;;4.27;;
74624;SDS011;63131;52.298;8.056;2022-10-22T03:03:40;8.63;;;3.80;;
74624;SDS011;63131;52.298;8.056;2022-10-22T03:06:05;11.50;;;4.27;;
74624;SDS011;63131;52.298;8.056;2022-10-22T03:08:31;10.40;;;4.20;;
74624;SDS011;63131;52.298;8.056;2022-10-22T03:10:56;12.53;;;4.90;;
74624;SDS011;63131;52.298;8.056;2022-10-22T03:13:21;10.83;;;4.03;;
74624;SDS011;63131;52.298;8.056;2022-10-22T03:15:49;9.20;;;4.33;;
74624;SDS011;63131;52.298;8.056;2022-10-22T03:18:15;10.23;;;4.22;;
74624;SDS011;63131;52.298;8.056;2022-10-22T03:20:40;9.05;;;4.15;;
74624;SDS011;63131;52.298;8.056;2022-10-22T03:23:05;9.47;;;3.80;;
74624;SDS011;63131;52.298;8.056;2022-10-22T03:25:30;11.37;;;4.37;;
74624;SDS011;63131;52.298;8.056;2022-10-22T03:27:59;9.27;;;4.30;;
74624;SDS011;63131;52.298;8.056;2022-10-22T03:30:26;8.90;;;4.03;;
74624;SDS011;63131;52.298;8.056;2022-10-22T03:32:51;9.03;;;4.20;;
74624;SDS011;63131;52.298;8.056;2022-10-22T03:35:16;9.73;;;3.77;;
74624;SDS011;63131;52.298;8.056;2022-10-22T03:37:41;8.83;;;4.00;;
74624;SDS011;63131;52.298;8.056;2022-10-22T03:40:07;10.55;;;3.80;;
74624;SDS011;63131;52.298;8.056;2022-10-22T03:42:32;8.63;;;3.58;;
74624;SDS011;63131;52.298;8.056;2022-10-22T03:44:58;8.60;;;4.03;;
74624;SDS011;63131;52.298;8.056;2022-10-22T03:47:23;9.17;;;3.93;;
74624;SDS011;63131;52.298;8.056;2022-10-22T03:49:49;9.30;;;3.57;;
74624;SDS011;63131;52.298;8.056;2022-10-22T03:52:14;10.82;;;4.10;;
74624;SDS011;63131;52.298;8.056;2022-10-22T03:54:40;9.27;;;3.78;;
74624;SDS011;63131;52.298;8.056;2022-10-22T03:59:38;8.63;;;3.80;;
74624;SDS011;63131;52.298;8.056;2022-10-22T04:02:03;10.18;;;4.15;;
74624;SDS011;63131;52.298;8.056;2022-10-22T04:04:29;10.55;;;4.25;;
74624;SDS011;63131;52.298;8.056;2022-10-22T04:06:54;9.63;;;3.90;;
74624;SDS011;63131;52.298;8.056;2022-10-22T04:09:19;9.33;;;3.57;;
74624;SDS011;63131;52.298;8.056;2022-10-22T04:11:44;9.47;;;3.60;;
74624;SDS011;63131;52.298;8.056;2022-10-22T04:14:09;10.43;;;4.37;;
74624;SDS011;63131;52.298;8.056;2022-10-22T04:19:01;9.83;;;3.93;;
74624;SDS011;63131;52.298;8.056;2022-10-22T04:21:26;8.60;;;3.67;;
74624;SDS011;63131;52.298;8.056;2022-10-22T04:23:51;9.83;;;3.93;;
74624;SDS011;63131;52.298;8.056;2022-10-22T04:26:17;7.97;;;3.60;;
74624;SDS011;63131;52.298;8.056;2022-10-22T04:28:43;9.05;;;3.47;;
74624;SDS011;63131;52.298;8.056;2022-10-22T04:31:09;9.00;;;3.72;;
74624;SDS011;63131;52.298;8.056;2022-10-22T04:33:34;8.82;;;3.92;;
74624;SDS011;63131;52.298;8.056;2022-10-22T04:36:04;8.00;;;3.63;;
74624;SDS011;63131;52.298;8.056;2022-10-22T04:38:29;8.45;;;3.28;;
74624;SDS011;63131;52.298;8.056;2022-10-22T04:40:55;9.37;;;3.93;;
74624;SDS011;63131;52.298;8.056;2022-10-22T04:43:20;12.07;;;3.53;;
74624;SDS011;63131;52.298;8.056;2022-10-22T04:45:45;9.77;;;3.90;;
74624;SDS011;63131;52.298;8.056;2022-10-22T04:48:10;9.37;;;3.50;;
74624;SDS011;63131;52.298;8.056;2022-10-22T04:50:35;9.13;;;3.55;;
74624;SDS011;63131;52.298;8.056;2022-10-22T04:53:01;11.40;;;3.72;;
74624;SDS011;63131;52.298;8.056;2022-10-22T04:55:26;8.57;;;3.67;;
74624;SDS011;63131;52.298;8.056;2022-10-22T04:57:51;8.83;;;3.37;;
74624;SDS011;63131;52.298;8.056;2022-10-22T05:00:16;8.27;;;3.47;;
74624;SDS011;63131;52.298;8.056;2022-10-22T05:02:42;9.67;;;3.20;;
74624;SDS011;63131;52.298;8.056;2022-10-22T05:05:08;9.00;;;3.25;;
74624;SDS011;63131;52.298;8.056;2022-10-22T05:07:33;7.95;;;3.70;;
74624;SDS011;63131;52.298;8.056;2022-10-22T05:09:59;10.13;;;4.03;;
74624;SDS011;63131;52.298;8.056;2022-10-22T05:12:26;8.90;;;3.35;;
74624;SDS011;63131;52.298;8.056;2022-10-22T05:14:51;11.73;;;4.60;;
74624;SDS011;63131;52.298;8.056;2022-10-22T05:17:16;9.55;;;3.78;;
74624;SDS011;63131;52.298;8.056;2022-10-22T05:19:41;9.70;;;3.80;;
74624;SDS011;63131;52.298;8.056;2022-10-22T05:22:07;9.27;;;3.80;;
74624;SDS011;63131;52.298;8.056;2022-10-22T05:24:33;8.73;;;4.00;;
74624;SDS011;63131;52.298;8.056;2022-10-22T05:26:58;11.38;;;4.20;;
74624;SDS011;63131;52.298;8.056;2022-10-22T05:29:24;9.23;;;3.80;;
74624;SDS011;63131;52.298;8.056;2022-10-22T05:31:49;9.43;;;4.47;;
74624;SDS011;63131;52.298;8.056;2022-10-22T05:34:15;9.10;;;3.67;;
74624;SDS011;63131;52.298;8.056;2022-10-22T05:36:40;9.00;;;3.92;;
74624;SDS011;63131;52.298;8.056;2022-10-22T05:39:05;8.30;;;3.83;;
74624;SDS011;63131;52.298;8.056;2022-10-22T05:41:33;8.95;;;4.10;;
74624;SDS011;63131;52.298;8.056;2022-10-22T05:44:02;8.75;;;3.33;;
74624;SDS011;63131;52.298;8.056;2022-10-22T05:46:28;9.43;;;3.95;;
74624;SDS011;63131;52.298;8.056;2022-10-22T05:49:00;9.82;;;4.00;;
74624;SDS011;63131;52.298;8.056;2022-10-22T05:51:27;10.45;;;4.10;;
74624;SDS011;63131;52.298;8.056;2022-10-22T05:53:54;8.63;;;3.80;;
74624;SDS011;63131;52.298;8.056;2022-10-22T05:56:19;7.95;;;3.67;;
74624;SDS011;63131;52.298;8.056;2022-10-22T05:58:45;11.00;;;4.07;;
74624;SDS011;63131;52.298;8.056;2022-10-22T06:01:14;9.82;;;3.92;;
74624;SDS011;63131;52.298;8.056;2022-10-22T06:03:40;8.25;;;3.65;;
74624;SDS011;63131;52.298;8.056;2022-10-22T06:06:13;10.27;;;4.22;;
74624;SDS011;63131;52.298;8.056;2022-10-22T06:08:39;9.27;;;3.60;;
74624;SDS011;63131;52.298;8.056;2022-10-22T06:11:04;10.02;;;4.28;;
74624;SDS011;63131;52.298;8.056;2022-10-22T06:13:30;10.37;;;4.23;;
74624;SDS011;63131;52.298;8.056;2022-10-22T06:15:56;8.90;;;4.30;;
74624;SDS011;63131;52.298;8.056;2022-10-22T06:18:21;10.90;;;3.80;;
74624;SDS011;63131;52.298;8.056;2022-10-22T06:20:47;8.90;;;3.97;;
74624;SDS011;63131;52.298;8.056;2022-10-22T06:23:12;9.17;;;3.70;;
74624;SDS011;63131;52.298;8.056;2022-10-22T06:25:38;9.63;;;4.43;;
74624;SDS011;63131;52.298;8.056;2022-10-22T06:28:03;9.57;;;4.20;;
74624;SDS011;63131;52.298;8.056;2022-10-22T06:30:29;8.77;;;3.63;;
74624;SDS011;63131;52.298;8.056;2022-10-22T06:32:54;10.43;;;3.83;;
74624;SDS011;63131;52.298;8.056;2022-10-22T06:35:19;8.88;;;3.97;;
74624;SDS011;63131;52.298;8.056;2022-10-22T06:37:45;10.00;;;4.73;;
74624;SDS011;63131;52.298;8.056;2022-10-22T06:40:11;8.82;;;3.95;;
74624;SDS011;63131;52.298;8.056;2022-10-22T06:42:37;11.75;;;4.60;;
74624;SDS011;63131;52.298;8.056;2022-10-22T06:45:02;10.03;;;4.80;;
74624;SDS011;63131;52.298;8.056;2022-10-22T06:47:27;10.88;;;4.72;;
74624;SDS011;63131;52.298;8.056;2022-10-22T06:49:55;10.05;;;3.90;;
74624;SDS011;63131;52.298;8.056;2022-10-22T06:52:20;9.97;;;4.07;;
74624;SDS011;63131;52.298;8.056;2022-10-22T06:54:45;11.33;;;4.47;;
74624;SDS011;63131;52.298;8.056;2022-10-22T06:57:11;11.83;;;5.23;;
74624;SDS011;63131;52.298;8.056;2022-10-22T06:59:36;10.65;;;5.15;;
74624;SDS011;63131;52.298;8.056;2022-10-22T07:02:01;9.50;;;4.13;;
74624;SDS011;63131;52.298;8.056;2022-10-22T07:04:26;11.67;;;4.87;;
74624;SDS011;63131;52.298;8.056;2022-10-22T07:06:53;14.50;;;4.37;;
74624;SDS011;63131;52.298;8.056;2022-10-22T07:09:18;10.13;;;4.65;;
74624;SDS011;63131;52.298;8.056;2022-10-22T07:11:44;11.63;;;4.90;;
74624;SDS011;63131;52.298;8.056;2022-10-22T07:14:10;9.75;;;4.40;;
74624;SDS011;63131;52.298;8.056;2022-10-22T07:16:35;10.00;;;3.63;;
74624;SDS011;63131;52.298;8.056;2022-10-22T07:19:02;10.48;;;3.95;;
74624;SDS011;63131;52.298;8.056;2022-10-22T07:21:27;9.82;;;4.95;;
74624;SDS011;63131;52.298;8.056;2022-10-22T07:23:52;12.35;;;4.63;;
74624;SDS011;63131;52.298;8.056;2022-10-22T07:26:18;10.10;;;4.07;;
74624;SDS011;63131;52.298;8.056;2022-10-22T07:28:46;10.07;;;4.22;;
74624;SDS011;63131;52.298;8.056;2022-10-22T07:31:12;8.32;;;3.80;;
74624;SDS011;63131;52.298;8.056;2022-10-22T07:36:03;9.98;;;4.47;;
74624;SDS011;63131;52.298;8.056;2022-10-22T07:38:29;10.85;;;4.57;;
74624;SDS011;63131;52.298;8.056;2022-10-22T07:40:55;10.20;;;4.72;;
74624;SDS011;63131;52.298;8.056;2022-10-22T07:43:21;11.13;;;4.68;;
74624;SDS011;63131;52.298;8.056;2022-10-22T07:45:46;10.60;;;4.63;;
74624;SDS011;63131;52.298;8.056;2022-10-22T07:48:11;10.70;;;4.60;;
74624;SDS011;63131;52.298;8.056;2022-10-22T07:50:36;10.77;;;4.93;;
74624;SDS011;63131;52.298;8.056;2022-10-22T07:53:01;12.93;;;4.77;;
74624;SDS011;63131;52.298;8.056;2022-10-22T07:55:27;9.80;;;4.57;;
74624;SDS011;63131;52.298;8.056;2022-10-22T07:57:52;12.10;;;4.50;;
74624;SDS011;63131;52.298;8.056;2022-10-22T08:00:17;11.95;;;3.80;;
74624;SDS011;63131;52.298;8.056;2022-10-22T08:02:42;12.38;;;4.07;;
74624;SDS011;63131;52.298;8.056;2022-10-22T08:05:08;10.77;;;4.50;;
74624;SDS011;63131;52.298;8.056;2022-10-22T08:07:33;12.18;;;4.20;;
74624;SDS011;63131;52.298;8.056;2022-10-22T08:09:58;9.40;;;4.05;;
74624;SDS011;63131;52.298;8.056;2022-10-22T08:12:23;10.87;;;4.30;;
74624;SDS011;63131;52.298;8.056;2022-10-22T08:17:14;9.60;;;3.70;;
74624;SDS011;63131;52.298;8.056;2022-10-22T08:19:39;13.30;;;4.10;;
74624;SDS011;63131;52.298;8.056;2022-10-22T08:22:05;10.20;;;3.90;;
74624;SDS011;63131;52.298;8.056;2022-10-22T08:24:30;11.00;;;3.80;;
74624;SDS011;63131;52.298;8.056;2022-10-22T08:26:55;9.73;;;3.33;;
74624;SDS011;63131;52.298;8.056;2022-10-22T08:29:21;11.40;;;3.92;;
74624;SDS011;63131;52.298;8.056;2022-10-22T08:31:47;11.98;;;4.30;;
74624;SDS011;63131;52.298;8.056;2022-10-22T08:36:37;10.38;;;3.75;;
74624;SDS011;63131;52.298;8.056;2022-10-22T08:41:27;9.18;;;3.40;;
74624;SDS011;63131;52.298;8.056;2022-10-22T08:44:09;8.85;;;4.05;;
74624;SDS011;63131;52.298;8.056;2022-10-22T08:46:44;8.25;;;3.38;;
74624;SDS011;63131;52.298;8.056;2022-10-22T08:49:31;10.23;;;4.00;;
74624;SDS011;63131;52.298;8.056;2022-10-22T08:51:57;12.43;;;3.85;;
74624;SDS011;63131;52.298;8.056;2022-10-22T08:59:18;14.30;;;3.70;;
74624;SDS011;63131;52.298;8.056;2022-10-22T09:01:45;9.57;;;3.15;;
74624;SDS011;63131;52.298;8.056;2022-10-22T09:04:13;13.35;;;4.32;;
74624;SDS011;63131;52.298;8.056;2022-10-22T09:06:40;11.07;;;3.63;;
74624;SDS011;63131;52.298;8.056;2022-10-22T09:09:09;8.73;;;3.35;;
74624;SDS011;63131;52.298;8.056;2022-10-22T09:11:37;11.45;;;3.90;;
74624;SDS011;63131;52.298;8.056;2022-10-22T09:14:03;9.13;;;3.33;;
74624;SDS011;63131;52.298;8.056;2022-10-22T09:21:32;9.18;;;3.33;;
74624;SDS011;63131;52.298;8.056;2022-10-22T09:24:03;10.10;;;3.13;;
74624;SDS011;63131;52.298;8.056;2022-10-22T09:26:31;9.20;;;3.45;;
74624;SDS011;63131;52.298;8.056;2022-10-22T09:28:58;7.93;;;2.70;;
74624;SDS011;63131;52.298;8.056;2022-10-22T09:31:25;8.90;;;2.95;;
74624;SDS011;63131;52.298;8.056;2022-10-22T09:33:51;10.88;;;3.13;;
74624;SDS011;63131;52.298;8.056;2022-10-22T09:36:17;8.97;;;3.20;;
74624;SDS011;63131;52.298;8.056;2022-10-22T09:38:47;8.00;;;2.70;;
74624;SDS011;63131;52.298;8.056;2022-10-22T09:41:13;11.70;;;3.00;;
74624;SDS011;63131;52.298;8.056;2022-10-22T09:43:39;13.32;;;3.22;;
74624;SDS011;63131;52.298;8.056;2022-10-22T09:46:05;8.87;;;2.93;;
74624;SDS011;63131;52.298;8.056;2022-10-22T09:48:35;7.35;;;2.83;;
74624;SDS011;63131;52.298;8.056;2022-10-22T09:51:04;9.48;;;3.40;;
74624;SDS011;63131;52.298;8.056;2022-10-22T09:53:34;9.32;;;3.13;;
74624;SDS011;63131;52.298;8.056;2022-10-22T09:56:00;9.55;;;2.97;;
74624;SDS011;63131;52.298;8.056;2022-10-22T09:58:39;9.32;;;3.55;;
74624;SDS011;63131;52.298;8.056;2022-10-22T10:01:04;8.15;;;3.10;;
74624;SDS011;63131;52.298;8.056;2022-10-22T10:03:30;9.40;;;3.70;;
74624;SDS011;63131;52.298;8.056;2022-10-22T10:05:57;9.23;;;3.70;;
74624;SDS011;63131;52.298;8.056;2022-10-22T10:08:23;8.10;;;2.92;;
74624;SDS011;63131;52.298;8.056;2022-10-22T10:13:29;8.95;;;3.33;;
74624;SDS011;63131;52.298;8.056;2022-10-22T10:15:59;11.63;;;3.63;;
74624;SDS011;63131;52.298;8.056;2022-10-22T10:36:35;9.10;;;3.15;;
74624;SDS011;63131;52.298;8.056;2022-10-22T10:39:03;9.20;;;2.72;;
74624;SDS011;63131;52.298;8.056;2022-10-22T10:46:31;9.32;;;2.70;;
74624;SDS011;63131;52.298;8.056;2022-10-22T10:49:08;9.27;;;2.70;;
74624;SDS011;63131;52.298;8.056;2022-10-22T10:51:41;7.78;;;2.47;;
74624;SDS011;63131;52.298;8.056;2022-10-22T10:54:59;9.10;;;2.55;;
74624;SDS011;63131;52.298;8.056;2022-10-22T10:56:59;10.30;;;2.83;;
74624;SDS011;63131;52.298;8.056;2022-10-22T11:06:51;6.47;;;2.15;;
74624;SDS011;63131;52.298;8.056;2022-10-22T11:09:34;8.15;;;2.85;;
74624;SDS011;63131;52.298;8.056;2022-10-22T11:12:02;7.57;;;2.63;;
74624;SDS011;63131;52.298;8.056;2022-10-22T11:14:31;8.18;;;2.72;;
74624;SDS011;63131;52.298;8.056;2022-10-22T11:17:00;10.23;;;2.55;;
74624;SDS011;63131;52.298;8.056;2022-10-22T11:19:29;9.55;;;2.25;;
74624;SDS011;63131;52.298;8.056;2022-10-22T11:22:01;8.15;;;2.33;;
74624;SDS011;63131;52.298;8.056;2022-10-22T11:27:03;8.32;;;2.08;;
74624;SDS011;63131;52.298;8.056;2022-10-22T11:29:32;5.50;;;1.70;;
74624;SDS011;63131;52.298;8.056;2022-10-22T11:31:58;8.07;;;2.63;;
74624;SDS011;63131;52.298;8.056;2022-10-22T11:34:37;6.65;;;2.10;;
74624;SDS011;63131;52.298;8.056;2022-10-22T11:37:11;9.23;;;2.22;;
74624;SDS011;63131;52.298;8.056;2022-10-22T11:44:27;6.00;;;2.20;;
74624;SDS011;63131;52.298;8.056;2022-10-22T11:46:58;7.65;;;2.38;;
74624;SDS011;63131;52.298;8.056;2022-10-22T11:49:27;9.07;;;2.42;;
74624;SDS011;63131;52.298;8.056;2022-10-22T11:52:21;8.20;;;2.00;;
74624;SDS011;63131;52.298;8.056;2022-10-22T11:54:47;10.27;;;2.05;;
74624;SDS011;63131;52.298;8.056;2022-10-22T11:59:46;7.10;;;2.30;;
74624;SDS011;63131;52.298;8.056;2022-10-22T12:08:03;11.52;;;1.98;;
74624;SDS011;63131;52.298;8.056;2022-10-22T12:10:34;9.13;;;2.22;;
74624;SDS011;63131;52.298;8.056;2022-10-22T12:13:03;7.63;;;1.85;;
74624;SDS011;63131;52.298;8.056;2022-10-22T12:15:29;12.27;;;2.75;;
74624;SDS011;63131;52.298;8.056;2022-10-22T12:18:01;8.03;;;2.30;;
74624;SDS011;63131;52.298;8.056;2022-10-22T12:20:27;9.18;;;2.60;;
74624;SDS011;63131;52.298;8.056;2022-10-22T12:22:56;6.15;;;2.20;;
74624;SDS011;63131;52.298;8.056;2022-10-22T12:25:38;7.78;;;2.40;;
74624;SDS011;63131;52.298;8.056;2022-10-22T12:28:09;6.05;;;2.00;;
74624;SDS011;63131;52.298;8.056;2022-10-22T12:30:35;7.88;;;2.30;;
74624;SDS011;63131;52.298;8.056;2022-10-22T12:33:04;9.93;;;2.55;;
74624;SDS011;63131;52.298;8.056;2022-10-22T12:35:34;10.00;;;2.45;;
74624;SDS011;63131;52.298;8.056;2022-10-22T12:38:12;9.80;;;2.20;;
74624;SDS011;63131;52.298;8.056;2022-10-22T12:40:41;8.70;;;1.98;;
74624;SDS011;63131;52.298;8.056;2022-10-22T12:43:11;6.68;;;2.20;;
74624;SDS011;63131;52.298;8.056;2022-10-22T12:45:37;7.88;;;2.25;;
74624;SDS011;63131;52.298;8.056;2022-10-22T12:50:30;9.37;;;2.30;;
74624;SDS011;63131;52.298;8.056;2022-10-22T12:53:03;9.95;;;2.10;;
74624;SDS011;63131;52.298;8.056;2022-10-22T12:55:29;10.65;;;2.72;;
74624;SDS011;63131;52.298;8.056;2022-10-22T12:57:55;8.25;;;2.58;;
74624;SDS011;63131;52.298;8.056;2022-10-22T13:00:25;8.05;;;2.67;;
74624;SDS011;63131;52.298;8.056;2022-10-22T13:02:51;7.18;;;2.60;;
74624;SDS011;63131;52.298;8.056;2022-10-22T13:05:24;8.55;;;2.42;;
74624;SDS011;63131;52.298;8.056;2022-10-22T13:08:10;7.55;;;2.40;;
74624;SDS011;63131;52.298;8.056;2022-10-22T13:10:39;5.43;;;2.20;;
74624;SDS011;63131;52.298;8.056;2022-10-22T13:13:05;7.20;;;2.22;;
74624;SDS011;63131;52.298;8.056;2022-10-22T13:20:49;5.97;;;2.20;;
74624;SDS011;63131;52.298;8.056;2022-10-22T13:23:23;9.70;;;2.60;;
74624;SDS011;63131;52.298;8.056;2022-10-22T13:25:58;6.63;;;2.25;;
74624;SDS011;63131;52.298;8.056;2022-10-22T13:28:24;7.93;;;2.38;;
74624;SDS011;63131;52.298;8.056;2022-10-22T13:30:54;8.25;;;2.58;;
74624;SDS011;63131;52.298;8.056;2022-10-22T13:35:46;7.38;;;2.83;;
74624;SDS011;63131;52.298;8.056;2022-10-22T13:40:37;7.72;;;2.42;;
74624;SDS011;63131;52.298;8.056;2022-10-22T13:45:27;8.50;;;3.22;;
74624;SDS011;63131;52.298;8.056;2022-10-22T13:50:18;6.82;;;3.20;;
74624;SDS011;63131;52.298;8.056;2022-10-22T13:52:54;7.88;;;2.97;;
74624;SDS011;63131;52.298;8.056;2022-10-22T13:55:21;8.13;;;3.20;;
74624;SDS011;63131;52.298;8.056;2022-10-22T13:57:49;7.40;;;3.38;;
74624;SDS011;63131;52.298;8.056;2022-10-22T14:00:16;7.80;;;3.67;;
74624;SDS011;63131;52.298;8.056;2022-10-22T14:02:42;8.68;;;3.25;;
74624;SDS011;63131;52.298;8.056;2022-10-22T14:07:34;8.32;;;3.33;;
74624;SDS011;63131;52.298;8.056;2022-10-22T14:09:59;9.50;;;3.20;;
74624;SDS011;63131;52.298;8.056;2022-10-22T14:12:24;7.77;;;2.83;;
74624;SDS011;63131;52.298;8.056;2022-10-22T14:14:49;8.37;;;2.97;;
74624;SDS011;63131;52.298;8.056;2022-10-22T14:19:41;7.90;;;2.65;;
74624;SDS011;63131;52.298;8.056;2022-10-22T14:22:08;6.55;;;2.55;;
74624;SDS011;63131;52.298;8.056;2022-10-22T14:24:34;11.07;;;3.05;;
74624;SDS011;63131;52.298;8.056;2022-10-22T14:29:24;7.22;;;2.33;;
74624;SDS011;63131;52.298;8.056;2022-10-22T14:34:14;7.28;;;2.70;;
74624;SDS011;63131;52.298;8.056;2022-10-22T14:36:42;7.28;;;2.80;;
74624;SDS011;63131;52.298;8.056;2022-10-22T14:39:08;7.97;;;2.73;;
74624;SDS011;63131;52.298;8.056;2022-10-22T14:41:33;8.37;;;2.60;;
74624;SDS011;63131;52.298;8.056;2022-10-22T14:43:59;8.50;;;2.50;;
74624;SDS011;63131;52.298;8.056;2022-10-22T14:46:24;5.80;;;2.00;;
74624;SDS011;63131;52.298;8.056;2022-10-22T14:48:49;8.10;;;2.37;;
74624;SDS011;63131;52.298;8.056;2022-10-22T14:51:18;6.67;;;2.40;;
74624;SDS011;63131;52.298;8.056;2022-10-22T14:53:43;9.55;;;2.55;;
74624;SDS011;63131;52.298;8.056;2022-10-22T14:56:12;6.82;;;2.40;;
74624;SDS011;63131;52.298;8.056;2022-10-22T14:58:38;7.18;;;2.55;;
74624;SDS011;63131;52.298;8.056;2022-10-22T15:01:03;7.93;;;3.75;;
74624;SDS011;63131;52.298;8.056;2022-10-22T15:03:28;7.57;;;2.70;;
74624;SDS011;63131;52.298;8.056;2022-10-22T15:05:54;7.65;;;2.50;;
74624;SDS011;63131;52.298;8.056;2022-10-22T15:08:20;7.25;;;2.33;;
74624;SDS011;63131;52.298;8.056;2022-10-22T15:10:45;8.57;;;2.38;;
74624;SDS011;63131;52.298;8.056;2022-10-22T15:13:11;6.72;;;2.40;;
74624;SDS011;63131;52.298;8.056;2022-10-22T15:15:39;9.30;;;2.70;;
74624;SDS011;63131;52.298;8.056;2022-10-22T15:18:04;8.00;;;2.40;;
74624;SDS011;63131;52.298;8.056;2022-10-22T15:20:31;10.73;;;2.00;;
74624;SDS011;63131;52.298;8.056;2022-10-22T15:22:57;8.63;;;2.20;;
74624;SDS011;63131;52.298;8.056;2022-10-22T15:25:22;7.35;;;2.13;;
74624;SDS011;63131;52.298;8.056;2022-10-22T15:27:48;7.93;;;2.60;;
74624;SDS011;63131;52.298;8.056;2022-10-22T15:30:13;7.35;;;2.10;;
74624;SDS011;63131;52.298;8.056;2022-10-22T15:32:38;7.85;;;2.42;;
74624;SDS011;63131;52.298;8.056;2022-10-22T15:35:04;7.57;;;2.22;;
74624;SDS011;63131;52.298;8.056;2022-10-22T15:37:29;6.82;;;2.35;;
74624;SDS011;63131;52.298;8.056;2022-10-22T15:39:56;10.73;;;2.30;;
74624;SDS011;63131;52.298;8.056;2022-10-22T15:42:21;6.97;;;2.53;;
74624;SDS011;63131;52.298;8.056;2022-10-22T15:44:47;8.45;;;2.47;;
74624;SDS011;63131;52.298;8.056;2022-10-22T15:47:13;9.55;;;2.30;;
74624;SDS011;63131;52.298;8.056;2022-10-22T15:49:38;7.20;;;2.03;;
74624;SDS011;63131;52.298;8.056;2022-10-22T15:52:05;6.93;;;2.50;;
74624;SDS011;63131;52.298;8.056;2022-10-22T15:54:31;9.83;;;2.40;;
74624;SDS011;63131;52.298;8.056;2022-10-22T15:59:21;6.53;;;2.35;;
74624;SDS011;63131;52.298;8.056;2022-10-22T16:01:46;5.97;;;2.20;;
74624;SDS011;63131;52.298;8.056;2022-10-22T16:04:12;6.60;;;2.05;;
74624;SDS011;63131;52.298;8.056;2022-10-22T16:09:04;8.07;;;2.40;;
74624;SDS011;63131;52.298;8.056;2022-10-22T16:11:30;7.57;;;3.10;;
74624;SDS011;63131;52.298;8.056;2022-10-22T16:13:56;8.55;;;2.50;;
74624;SDS011;63131;52.298;8.056;2022-10-22T16:16:22;8.40;;;2.60;;
74624;SDS011;63131;52.298;8.056;2022-10-22T16:18:49;8.38;;;2.13;;
74624;SDS011;63131;52.298;8.056;2022-10-22T16:21:14;7.85;;;2.55;;
74624;SDS011;63131;52.298;8.056;2022-10-22T16:23:40;7.78;;;2.45;;
74624;SDS011;63131;52.298;8.056;2022-10-22T16:26:06;7.15;;;2.53;;
74624;SDS011;63131;52.298;8.056;2022-10-22T16:28:31;8.70;;;2.90;;
74624;SDS011;63131;52.298;8.056;2022-10-22T16:30:59;8.77;;;2.65;;
74624;SDS011;63131;52.298;8.056;2022-10-22T16:33:24;8.50;;;3.03;;
74624;SDS011;63131;52.298;8.056;2022-10-22T16:35:50;8.63;;;3.33;;
74624;SDS011;63131;52.298;8.056;2022-10-22T16:40:41;9.38;;;2.55;;
74624;SDS011;63131;52.298;8.056;2022-10-22T16:43:07;8.50;;;2.70;;
74624;SDS011;63131;52.298;8.056;2022-10-22T16:45:32;7.78;;;2.78;;
74624;SDS011;63131;52.298;8.056;2022-10-22T16:50:22;8.73;;;2.90;;
74624;SDS011;63131;52.298;8.056;2022-10-22T16:52:47;10.60;;;3.23;;
74624;SDS011;63131;52.298;8.056;2022-10-22T16:55:14;10.05;;;3.75;;
74624;SDS011;63131;52.298;8.056;2022-10-22T17:00:05;10.75;;;3.22;;
74624;SDS011;63131;52.298;8.056;2022-10-22T17:04:55;11.68;;;3.92;;
74624;SDS011;63131;52.298;8.056;2022-10-22T17:09:46;10.77;;;5.22;;
74624;SDS011;63131;52.298;8.056;2022-10-22T17:12:11;10.07;;;4.40;;